createdAt,value
2023-04-19T00:02:22.497Z,4.15
2023-04-19T00:04:53.473Z,4.90
2023-04-19T00:07:26.553Z,4.63
2023-04-19T00:09:56.587Z,5.10
2023-04-19T00:12:26.639Z,4.85
2023-04-19T00:14:56.673Z,4.40
2023-04-19T00:17:27.545Z,5.13
2023-04-19T00:19:57.872Z,4.43
2023-04-19T00:22:30.577Z,4.65
2023-04-19T00:25:00.859Z,4.38
2023-04-19T00:27:31.045Z,4.10
2023-04-19T00:30:01.300Z,4.70
2023-04-19T00:32:31.347Z,4.40
2023-04-19T00:35:01.382Z,4.00
2023-04-19T00:37:33.989Z,3.60
2023-04-19T00:40:05.538Z,3.80
2023-04-19T00:42:35.687Z,3.58
2023-04-19T00:45:05.899Z,4.20
2023-04-19T00:47:36.358Z,3.85
2023-04-19T00:50:07.627Z,3.90
2023-04-19T00:52:40.263Z,4.00
2023-04-19T00:55:11.596Z,4.07
2023-04-19T00:57:41.670Z,4.15
2023-04-19T01:00:13.548Z,4.10
2023-04-19T01:02:43.682Z,4.10
2023-04-19T01:05:13.909Z,3.95
2023-04-19T01:07:46.678Z,4.00
2023-04-19T01:10:17.382Z,4.30
2023-04-19T01:12:47.565Z,4.03
2023-04-19T01:15:17.502Z,3.95
2023-04-19T01:17:47.611Z,3.53
2023-04-19T01:20:17.780Z,3.88
2023-04-19T01:22:50.483Z,4.10
2023-04-19T01:25:20.515Z,4.13
2023-04-19T01:27:50.510Z,3.78
2023-04-19T01:30:20.514Z,3.85
2023-04-19T01:32:50.650Z,4.32
2023-04-19T01:35:21.795Z,4.00
2023-04-19T01:37:56.417Z,4.38
2023-04-19T01:42:57.201Z,4.60
2023-04-19T01:45:27.179Z,4.25
2023-04-19T01:47:57.212Z,4.07
2023-04-19T01:50:27.284Z,3.78
2023-04-19T01:53:00.438Z,4.40
2023-04-19T01:55:30.553Z,4.07
2023-04-19T01:58:00.557Z,4.13
2023-04-19T02:00:30.614Z,4.72
2023-04-19T02:03:00.715Z,5.22
2023-04-19T02:05:30.795Z,4.25
2023-04-19T02:08:04.129Z,4.45
2023-04-19T02:10:34.296Z,4.10
2023-04-19T02:13:04.242Z,3.97
2023-04-19T02:15:34.386Z,4.30
2023-04-19T02:18:06.722Z,5.05
2023-04-19T02:20:37.158Z,4.40
2023-04-19T02:23:09.759Z,4.30
2023-04-19T02:25:39.760Z,4.45
2023-04-19T02:28:09.773Z,4.75
2023-04-19T02:30:40.421Z,4.30
2023-04-19T02:33:10.788Z,4.75
2023-04-19T02:35:41.122Z,4.22
2023-04-19T02:38:13.692Z,4.57
2023-04-19T02:40:43.651Z,4.47
2023-04-19T02:43:13.752Z,4.32
2023-04-19T02:45:43.788Z,4.50
2023-04-19T02:48:13.889Z,4.25
2023-04-19T02:50:43.913Z,4.03
2023-04-19T02:53:16.674Z,4.60
2023-04-19T02:55:46.644Z,3.65
2023-04-19T02:58:16.596Z,3.88
2023-04-19T03:00:46.645Z,4.07
2023-04-19T03:03:16.724Z,3.95
2023-04-19T03:05:46.811Z,3.88
2023-04-19T03:08:19.371Z,3.90
2023-04-19T03:10:49.422Z,3.80
2023-04-19T03:13:19.674Z,3.47
2023-04-19T03:15:50.928Z,3.70
2023-04-19T03:18:21.170Z,3.20
2023-04-19T03:20:51.164Z,3.95
2023-04-19T03:23:24.817Z,3.58
2023-04-19T03:25:55.084Z,3.67
2023-04-19T03:28:25.660Z,3.65
2023-04-19T03:31:01.665Z,3.78
2023-04-19T03:33:31.896Z,3.95
2023-04-19T03:36:02.208Z,4.03
2023-04-19T03:38:35.120Z,3.72
2023-04-19T03:41:05.203Z,4.00
2023-04-19T03:43:35.511Z,4.00
2023-04-19T03:46:05.789Z,3.58
2023-04-19T03:48:35.899Z,3.95
2023-04-19T03:51:06.593Z,3.38
2023-04-19T03:53:40.406Z,3.55
2023-04-19T03:56:11.268Z,3.53
2023-04-19T03:58:42.792Z,4.20
2023-04-19T04:01:21.839Z,3.97
2023-04-19T04:03:52.461Z,3.30
2023-04-19T04:06:22.952Z,3.90
2023-04-19T04:08:56.037Z,3.70
2023-04-19T04:11:26.511Z,4.38
2023-04-19T04:13:57.430Z,3.70
2023-04-19T04:16:28.121Z,3.60
2023-04-19T04:18:58.623Z,4.13
2023-04-19T04:21:29.092Z,4.00
2023-04-19T04:24:02.199Z,3.85
2023-04-19T04:26:34.257Z,3.30
2023-04-19T04:29:05.410Z,3.70
2023-04-19T04:31:36.282Z,3.90
2023-04-19T04:34:06.737Z,3.60
2023-04-19T04:36:37.805Z,2.97
2023-04-19T04:39:12.311Z,3.72
2023-04-19T04:41:42.693Z,3.83
2023-04-19T04:44:13.218Z,3.90
2023-04-19T04:46:43.626Z,3.53
2023-04-19T04:49:14.137Z,3.05
2023-04-19T04:51:44.603Z,3.75
2023-04-19T04:54:17.872Z,3.70
2023-04-19T04:56:48.462Z,3.60
2023-04-19T04:59:19.058Z,3.75
2023-04-19T05:01:49.568Z,3.47
2023-04-19T05:04:20.225Z,3.50
2023-04-19T05:06:50.753Z,3.75
2023-04-19T05:09:23.713Z,3.85
2023-04-19T05:11:54.587Z,3.72
2023-04-19T05:14:25.164Z,4.07
2023-04-19T05:16:55.604Z,3.92
2023-04-19T05:19:25.844Z,3.40
2023-04-19T05:21:56.067Z,3.25
2023-04-19T05:24:28.921Z,3.22
2023-04-19T05:26:59.139Z,3.88
2023-04-19T05:29:29.295Z,2.75
2023-04-19T05:32:00.661Z,3.15
2023-04-19T05:34:30.998Z,2.95
2023-04-19T05:37:01.350Z,2.72
2023-04-19T05:39:34.247Z,2.97
2023-04-19T05:42:04.717Z,3.20
2023-04-19T05:44:35.111Z,2.83
2023-04-19T05:47:05.435Z,2.80
2023-04-19T05:49:36.193Z,2.80
2023-04-19T05:52:06.975Z,3.05
2023-04-19T05:54:39.973Z,3.17
2023-04-19T05:57:10.352Z,2.50
2023-04-19T05:59:40.637Z,2.60
2023-04-19T06:02:11.703Z,2.78
2023-04-19T06:04:42.570Z,2.45
2023-04-19T06:07:26.520Z,2.70
2023-04-19T06:10:03.431Z,2.65
2023-04-19T06:12:33.860Z,2.80
2023-04-19T06:15:04.080Z,2.90
2023-04-19T06:17:34.509Z,2.65
2023-04-19T06:20:07.095Z,1.98
2023-04-19T06:22:37.522Z,2.47
2023-04-19T06:25:11.450Z,1.95
2023-04-19T06:27:41.830Z,2.40
2023-04-19T06:30:13.390Z,2.33
2023-04-19T06:32:43.580Z,2.33
2023-04-19T06:35:14.951Z,2.50
2023-04-19T06:37:45.095Z,2.35
2023-04-19T06:40:17.996Z,2.17
2023-04-19T06:42:48.230Z,2.55
2023-04-19T06:45:19.012Z,2.03
2023-04-19T06:47:49.401Z,2.53
2023-04-19T06:50:19.623Z,2.50
2023-04-19T06:52:49.855Z,2.17
2023-04-19T06:55:22.640Z,2.60
2023-04-19T06:57:52.844Z,2.80
2023-04-19T07:00:23.585Z,2.40
2023-04-19T07:02:54.109Z,2.50
2023-04-19T07:05:24.822Z,2.10
2023-04-19T07:07:54.978Z,2.47
2023-04-19T07:10:27.945Z,1.92
2023-04-19T07:12:58.180Z,2.13
2023-04-19T07:15:28.349Z,2.67
2023-04-19T07:17:58.565Z,2.30
2023-04-19T07:20:29.354Z,2.53
2023-04-19T07:22:59.595Z,2.35
2023-04-19T07:25:32.383Z,2.70
2023-04-19T07:28:02.563Z,2.50
2023-04-19T07:30:32.768Z,2.70
2023-04-19T07:33:04.545Z,2.35
2023-04-19T07:35:34.765Z,2.50
2023-04-19T07:38:05.090Z,2.40
2023-04-19T07:40:37.938Z,2.33
2023-04-19T07:43:08.072Z,2.40
2023-04-19T07:45:38.905Z,2.50
2023-04-19T07:48:09.503Z,2.08
2023-04-19T07:50:40.862Z,2.13
2023-04-19T07:53:11.005Z,2.42
2023-04-19T07:55:43.830Z,2.33
2023-04-19T07:58:15.409Z,2.88
2023-04-19T08:00:45.809Z,2.65
2023-04-19T08:03:16.212Z,2.50
2023-04-19T08:05:46.789Z,1.42
2023-04-19T08:08:17.218Z,1.92
2023-04-19T08:10:50.027Z,2.53
2023-04-19T08:13:20.222Z,2.42
2023-04-19T08:16:27.082Z,2.67
2023-04-19T08:18:40.664Z,3.00
2023-04-19T08:21:10.967Z,3.33
2023-04-19T08:23:48.049Z,3.47
2023-04-19T08:26:22.943Z,2.88
2023-04-19T08:28:53.158Z,2.78
2023-04-19T08:31:23.571Z,2.25
2023-04-19T08:33:53.834Z,2.28
2023-04-19T08:36:37.027Z,1.98
2023-04-19T08:39:17.763Z,2.42
2023-04-19T08:42:06.631Z,2.65
2023-04-19T08:44:56.233Z,3.10
2023-04-19T08:47:37.207Z,2.95
2023-04-19T08:50:28.243Z,3.13
2023-04-19T08:55:38.282Z,3.03
2023-04-19T08:58:23.240Z,3.20
2023-04-19T09:01:01.164Z,3.13
2023-04-19T09:03:36.578Z,3.40
2023-04-19T09:06:14.809Z,2.75
2023-04-19T09:08:44.965Z,3.30
2023-04-19T09:11:14.956Z,2.95
2023-04-19T09:13:47.599Z,2.28
2023-04-19T09:16:27.887Z,2.50
2023-04-19T09:19:08.587Z,3.40
2023-04-19T09:21:46.156Z,3.25
2023-04-19T09:24:16.319Z,3.58
2023-04-19T09:26:58.430Z,2.58
2023-04-19T09:29:31.116Z,3.30
2023-04-19T09:32:02.369Z,3.35
2023-04-19T09:34:33.370Z,3.53
2023-04-19T09:37:28.062Z,3.20
2023-04-19T09:40:25.508Z,3.20
2023-04-19T09:43:10.653Z,1.85
2023-04-19T09:45:49.424Z,2.72
2023-04-19T09:48:19.396Z,3.38
2023-04-19T09:51:03.165Z,3.08
2023-04-19T09:53:37.165Z,2.70
2023-04-19T09:56:07.566Z,3.90
2023-04-19T09:58:51.080Z,3.13
2023-04-19T10:01:29.908Z,2.97
2023-04-19T10:04:10.259Z,2.80
2023-04-19T10:07:19.364Z,3.63
2023-04-19T10:09:49.643Z,1.45
2023-04-19T10:15:02.152Z,3.50
2023-04-19T10:17:34.919Z,1.83
2023-04-19T10:20:10.822Z,2.47
2023-04-19T10:22:41.843Z,3.10
2023-04-19T10:25:14.308Z,1.65
2023-04-19T10:27:47.143Z,2.80
2023-04-19T10:30:21.774Z,3.10
2023-04-19T10:35:31.615Z,3.20
2023-04-19T10:38:13.192Z,3.00
2023-04-19T10:41:00.986Z,4.07
2023-04-19T10:43:33.143Z,2.88
2023-04-19T10:46:04.982Z,2.30
2023-04-19T10:48:44.266Z,1.63
2023-04-19T10:51:20.577Z,2.10
2023-04-19T10:53:59.299Z,3.55
2023-04-19T10:57:00.869Z,2.33
2023-04-19T10:59:33.225Z,3.22
2023-04-19T11:02:05.693Z,3.15
2023-04-19T11:05:14.627Z,2.50
2023-04-19T11:07:45.502Z,2.20
2023-04-19T11:10:15.494Z,4.28
2023-04-19T11:12:46.798Z,3.35
2023-04-19T11:15:16.818Z,2.72
2023-04-19T11:17:47.138Z,3.42
2023-04-19T11:20:22.033Z,4.07
2023-04-19T11:22:52.186Z,3.95
2023-04-19T11:25:23.948Z,2.85
2023-04-19T11:27:56.237Z,3.08
2023-04-19T11:30:32.850Z,3.40
2023-04-19T11:33:02.970Z,3.40
2023-04-19T11:35:36.151Z,4.10
2023-04-19T11:38:06.631Z,3.33
2023-04-19T11:40:37.755Z,2.80
2023-04-19T11:43:08.012Z,2.22
2023-04-19T11:45:40.390Z,2.42
2023-04-19T11:48:16.849Z,2.13
2023-04-19T11:50:50.248Z,2.92
2023-04-19T11:53:21.946Z,2.10
2023-04-19T11:55:54.054Z,2.67
2023-04-19T11:58:33.671Z,2.35
2023-04-19T12:01:09.102Z,2.92
2023-04-19T12:03:44.167Z,3.42
2023-04-19T12:06:19.496Z,3.22
2023-04-19T12:08:52.453Z,3.17
2023-04-19T12:11:26.640Z,3.42
2023-04-19T12:14:11.768Z,3.33
2023-04-19T12:19:16.313Z,3.55
2023-04-19T12:24:19.822Z,3.63
2023-04-19T12:26:57.856Z,4.10
2023-04-19T12:29:30.232Z,3.17
2023-04-19T12:32:00.649Z,3.60
2023-04-19T12:34:31.092Z,3.05
2023-04-19T12:37:04.517Z,2.55
2023-04-19T12:39:34.882Z,3.60
2023-04-19T12:42:06.296Z,4.13
2023-04-19T12:44:36.813Z,3.90
2023-04-19T12:47:07.192Z,3.67
2023-04-19T12:49:38.588Z,3.15
2023-04-19T12:52:11.948Z,5.35
2023-04-19T12:54:42.096Z,5.13
2023-04-19T12:57:12.183Z,3.17
2023-04-19T12:59:42.217Z,3.00
2023-04-19T13:02:12.759Z,3.72
2023-04-19T13:04:43.012Z,3.22
2023-04-19T13:07:16.125Z,4.18
2023-04-19T13:09:46.491Z,3.20
2023-04-19T13:12:16.643Z,2.90
2023-04-19T13:14:50.299Z,3.25
2023-04-19T13:17:20.753Z,3.70
2023-04-19T13:19:51.294Z,3.95
2023-04-19T13:22:24.280Z,3.95
2023-04-19T13:24:54.526Z,3.88
2023-04-19T13:27:24.765Z,4.30
2023-04-19T13:29:54.995Z,3.30
2023-04-19T13:32:25.349Z,3.13
2023-04-19T13:34:55.784Z,2.70
2023-04-19T13:37:28.620Z,1.85
2023-04-19T13:40:10.752Z,2.50
2023-04-19T13:42:47.867Z,3.92
2023-04-19T13:45:18.186Z,3.78
2023-04-19T13:47:49.159Z,3.38
2023-04-19T13:50:19.262Z,3.42
2023-04-19T13:52:52.148Z,3.92
2023-04-19T13:55:22.628Z,4.63
2023-04-19T13:57:52.965Z,4.07
2023-04-19T14:00:24.663Z,4.40
2023-04-19T14:02:55.454Z,3.42
2023-04-19T14:05:26.014Z,4.70
2023-04-19T14:07:59.071Z,4.05
2023-04-19T14:10:29.544Z,3.85
2023-04-19T14:12:59.831Z,3.75
2023-04-19T14:15:30.200Z,3.90
2023-04-19T14:18:00.605Z,3.20
2023-04-19T14:20:30.678Z,4.03
2023-04-19T14:23:03.889Z,4.07
2023-04-19T14:25:34.199Z,4.65
2023-04-19T14:28:04.499Z,4.35
2023-04-19T14:30:34.657Z,4.05
2023-04-19T14:33:04.962Z,4.63
2023-04-19T14:35:35.670Z,4.20
2023-04-19T14:38:08.581Z,4.28
2023-04-19T14:40:38.979Z,4.90
2023-04-19T14:43:09.263Z,6.00
2023-04-19T14:45:39.393Z,4.45
2023-04-19T14:48:09.849Z,4.88
2023-04-19T14:50:40.214Z,4.63
2023-04-19T14:53:13.123Z,4.80
2023-04-19T14:55:43.408Z,5.45
2023-04-19T14:58:13.682Z,5.05
2023-04-19T15:00:43.985Z,5.07
2023-04-19T15:03:14.427Z,6.53
2023-04-19T15:05:44.829Z,5.75
2023-04-19T15:10:53.997Z,6.30
2023-04-19T15:13:24.288Z,6.38
2023-04-19T15:15:54.639Z,6.75
2023-04-19T15:18:24.954Z,6.20
2023-04-19T15:20:55.271Z,6.13
2023-04-19T15:23:29.151Z,5.80
2023-04-19T15:25:59.758Z,6.22
2023-04-19T15:28:30.202Z,6.30
2023-04-19T15:31:03.296Z,6.30
2023-04-19T15:33:34.008Z,6.10
2023-04-19T15:36:04.976Z,6.30
2023-04-19T15:38:38.037Z,6.13
2023-04-19T15:41:08.545Z,6.10
2023-04-19T15:43:38.800Z,6.90
2023-04-19T15:46:09.312Z,6.45
2023-04-19T15:48:39.521Z,6.88
2023-04-19T15:51:10.061Z,6.85
2023-04-19T15:53:42.856Z,6.80
2023-04-19T15:56:13.955Z,6.82
2023-04-19T15:58:44.660Z,7.70
2023-04-19T16:01:17.040Z,7.75
2023-04-19T16:03:49.502Z,7.05
2023-04-19T16:06:20.070Z,6.70
2023-04-19T16:08:53.596Z,7.07
2023-04-19T16:11:24.023Z,7.25
2023-04-19T16:13:54.180Z,6.75
2023-04-19T16:16:26.889Z,7.32
2023-04-19T16:18:57.278Z,6.65
2023-04-19T16:21:28.842Z,6.78
2023-04-19T16:24:02.473Z,7.65
2023-04-19T16:26:32.679Z,6.80
2023-04-19T16:29:03.009Z,7.28
2023-04-19T16:31:33.383Z,6.90
2023-04-19T16:34:03.681Z,7.15
2023-04-19T16:36:34.116Z,6.90
2023-04-19T16:39:06.967Z,7.65
2023-04-19T16:41:37.217Z,7.28
2023-04-19T16:44:07.575Z,7.47
2023-04-19T16:46:37.697Z,6.50
2023-04-19T16:49:08.085Z,6.50
2023-04-19T16:51:38.410Z,6.28
2023-04-19T16:54:11.201Z,6.97
2023-04-19T16:56:41.346Z,7.00
2023-04-19T16:59:11.675Z,7.60
2023-04-19T17:01:41.970Z,8.40
2023-04-19T17:04:12.452Z,7.63
2023-04-19T17:06:42.697Z,6.82
2023-04-19T17:09:15.890Z,7.65
2023-04-19T17:11:46.432Z,7.10
2023-04-19T17:14:16.902Z,8.15
2023-04-19T17:16:47.467Z,7.43
2023-04-19T17:19:18.731Z,7.20
2023-04-19T17:21:49.638Z,6.72
2023-04-19T17:24:22.458Z,7.30
2023-04-19T17:26:52.881Z,8.15
2023-04-19T17:29:23.037Z,7.22
2023-04-19T17:31:53.194Z,7.72
2023-04-19T17:34:23.391Z,7.78
2023-04-19T17:36:53.600Z,6.82
2023-04-19T17:39:28.161Z,7.13
2023-04-19T17:41:58.983Z,6.65
2023-04-19T17:44:29.377Z,6.28
2023-04-19T17:46:59.774Z,6.57
2023-04-19T17:49:30.144Z,7.15
2023-04-19T17:52:00.489Z,7.28
2023-04-19T17:54:33.373Z,6.28
2023-04-19T17:57:03.449Z,6.70
2023-04-19T17:59:33.971Z,7.28
2023-04-19T18:02:04.413Z,6.97
2023-04-19T18:04:34.860Z,6.65
2023-04-19T18:07:05.236Z,7.93
2023-04-19T18:09:38.068Z,7.85
2023-04-19T18:12:08.914Z,6.43
2023-04-19T18:14:39.165Z,7.30
2023-04-19T18:17:09.454Z,7.25
2023-04-19T18:19:40.210Z,6.97
2023-04-19T18:22:10.443Z,6.85
2023-04-19T18:24:46.227Z,7.53
2023-04-19T18:27:16.548Z,7.32
2023-04-19T18:29:46.979Z,6.60
2023-04-19T18:32:17.205Z,7.97
2023-04-19T18:34:48.011Z,7.82
2023-04-19T18:37:20.040Z,7.30
2023-04-19T18:39:53.020Z,6.85
2023-04-19T18:42:23.707Z,8.10
2023-04-19T18:44:54.769Z,8.13
2023-04-19T18:47:25.212Z,7.70
2023-04-19T18:50:03.279Z,8.20
2023-04-19T18:52:35.903Z,8.00
2023-04-19T18:55:11.668Z,8.43
2023-04-19T18:57:41.769Z,8.73
2023-04-19T19:00:13.378Z,8.70
2023-04-19T19:02:44.695Z,8.65
2023-04-19T19:05:16.156Z,9.15
2023-04-19T19:07:46.591Z,8.77
2023-04-19T19:10:22.434Z,8.68
2023-04-19T19:12:56.676Z,9.35
2023-04-19T19:15:27.585Z,9.23
2023-04-19T19:17:58.016Z,9.68
2023-04-19T19:20:28.302Z,8.68
2023-04-19T19:22:58.335Z,9.63
2023-04-19T19:25:30.961Z,9.35
2023-04-19T19:30:34.847Z,9.55
2023-04-19T19:33:05.618Z,10.52
2023-04-19T19:35:36.164Z,9.95
2023-04-19T19:38:06.527Z,10.48
2023-04-19T19:40:59.335Z,9.65
2023-04-19T19:43:29.072Z,9.38
2023-04-19T19:45:59.047Z,9.52
2023-04-19T19:48:30.171Z,9.93
2023-04-19T19:51:31.437Z,11.32
2023-04-19T19:53:52.170Z,9.98
2023-04-19T19:56:25.152Z,9.38
2023-04-19T20:01:27.310Z,10.48
2023-04-19T20:03:58.517Z,9.10
2023-04-19T20:09:02.717Z,9.82
2023-04-19T20:11:35.785Z,10.07
2023-04-19T20:14:06.255Z,9.70
2023-04-19T20:16:37.773Z,10.05
2023-04-19T20:19:10.161Z,10.02
2023-04-19T20:21:40.614Z,10.63
2023-04-19T20:24:11.972Z,9.70
2023-04-19T20:26:44.769Z,9.18
2023-04-19T20:29:15.059Z,8.70
2023-04-19T20:31:45.654Z,9.57
2023-04-19T20:34:15.835Z,9.15
2023-04-19T20:36:46.958Z,9.02
2023-04-19T20:39:19.348Z,9.23
2023-04-19T20:41:54.066Z,9.50
2023-04-19T20:44:25.580Z,9.90
2023-04-19T20:46:56.378Z,9.32
2023-04-19T20:49:26.560Z,9.70
2023-04-19T20:51:56.737Z,9.75
2023-04-19T20:54:26.928Z,10.55
2023-04-19T20:57:05.033Z,9.82
2023-04-19T20:59:35.556Z,10.50
2023-04-19T21:02:06.736Z,9.77
2023-04-19T21:04:37.148Z,11.18
2023-04-19T21:07:07.442Z,11.48
2023-04-19T21:09:38.232Z,11.27
2023-04-19T21:12:11.121Z,10.85
2023-04-19T21:14:41.340Z,10.50
2023-04-19T21:17:11.583Z,10.00
2023-04-19T21:19:41.720Z,11.70
2023-04-19T21:22:11.896Z,11.80
2023-04-19T21:24:42.582Z,11.52
2023-04-19T21:27:15.406Z,11.77
2023-04-19T21:29:45.532Z,11.80
2023-04-19T21:32:15.532Z,11.20
2023-04-19T21:34:48.265Z,11.90
2023-04-19T21:37:19.894Z,10.68
2023-04-19T21:39:50.555Z,11.75
2023-04-19T21:42:23.543Z,10.65
2023-04-19T21:44:53.532Z,10.93
2023-04-19T21:47:23.618Z,12.13
2023-04-19T21:49:53.739Z,12.10
2023-04-19T21:52:24.009Z,11.30
2023-04-19T21:54:54.024Z,11.77
2023-04-19T21:57:27.259Z,11.95
2023-04-19T21:59:57.272Z,11.70
2023-04-19T22:02:27.319Z,10.93
2023-04-19T22:05:00.412Z,11.10
2023-04-19T22:07:32.045Z,10.57
2023-04-19T22:10:03.587Z,10.40
2023-04-19T22:12:45.119Z,11.85
2023-04-19T22:15:21.600Z,10.60
2023-04-19T22:17:52.167Z,9.60
2023-04-19T22:20:22.235Z,11.00
2023-04-19T22:22:52.251Z,10.32
2023-04-19T22:25:22.535Z,10.57
2023-04-19T22:27:55.382Z,10.57
2023-04-19T22:30:25.385Z,10.80
2023-04-19T22:32:55.536Z,10.25
2023-04-19T22:35:25.588Z,10.45
2023-04-19T22:37:55.611Z,8.00
2023-04-19T22:40:25.885Z,10.82
2023-04-19T22:43:01.192Z,10.90
2023-04-19T22:45:31.171Z,10.32
2023-04-19T22:48:01.241Z,9.75
2023-04-19T22:50:31.245Z,9.95
2023-04-19T22:53:01.263Z,10.70
2023-04-19T22:55:31.330Z,10.80
2023-04-19T22:58:04.977Z,10.20
2023-04-19T23:00:35.169Z,10.45
2023-04-19T23:03:05.565Z,10.80
2023-04-19T23:05:36.329Z,10.18
2023-04-19T23:08:07.321Z,9.85
2023-04-19T23:10:38.254Z,10.60
2023-04-19T23:13:11.768Z,10.30
2023-04-19T23:15:42.078Z,10.13
2023-04-19T23:18:12.327Z,10.43
2023-04-19T23:20:43.184Z,10.07
2023-04-19T23:23:13.181Z,10.43
2023-04-19T23:25:43.129Z,10.25
2023-04-19T23:28:15.676Z,10.95
2023-04-19T23:30:45.668Z,10.25
2023-04-19T23:33:15.700Z,9.63
2023-04-19T23:35:45.807Z,9.32
2023-04-19T23:38:16.025Z,9.40
2023-04-19T23:40:46.040Z,9.35
2023-04-19T23:43:18.658Z,9.15
2023-04-19T23:45:48.648Z,9.85
2023-04-19T23:48:18.740Z,8.93
2023-04-19T23:50:48.704Z,9.23
2023-04-19T23:53:18.682Z,9.40
2023-04-19T23:55:48.838Z,9.98
2023-04-19T23:58:21.707Z,9.38
